createdAt,value
2022-12-09T00:02:05.004Z,57.87
2022-12-09T00:04:32.173Z,57.98
2022-12-09T00:06:58.809Z,58.04
2022-12-09T00:09:25.375Z,58.12
2022-12-09T00:11:52.933Z,58.15
2022-12-09T00:14:19.739Z,58.25
2022-12-09T00:16:46.588Z,58.30
2022-12-09T00:19:14.912Z,58.15
2022-12-09T00:21:43.394Z,58.53
2022-12-09T00:24:12.380Z,58.53
2022-12-09T00:26:39.908Z,58.55
2022-12-09T00:29:07.289Z,58.68
2022-12-09T00:31:36.138Z,58.76
2022-12-09T00:34:05.723Z,59.01
2022-12-09T00:36:32.334Z,59.12
2022-12-09T00:38:59.780Z,59.04
2022-12-09T00:41:27.030Z,59.24
2022-12-09T00:43:54.387Z,58.93
2022-12-09T00:46:21.295Z,58.94
2022-12-09T00:48:48.167Z,58.94
2022-12-09T00:51:17.626Z,58.83
2022-12-09T00:53:45.357Z,58.90
2022-12-09T00:56:12.207Z,58.80
2022-12-09T00:58:38.806Z,58.86
2022-12-09T01:01:05.946Z,58.85
2022-12-09T01:03:33.167Z,58.94
2022-12-09T01:06:00.312Z,58.73
2022-12-09T01:08:27.272Z,59.04
2022-12-09T01:10:53.827Z,59.15
2022-12-09T01:13:20.586Z,59.28
2022-12-09T01:15:47.596Z,59.50
2022-12-09T01:18:14.309Z,59.43
2022-12-09T01:20:41.171Z,59.73
2022-12-09T01:23:07.911Z,59.77
2022-12-09T01:25:34.769Z,59.95
2022-12-09T01:28:01.637Z,59.90
2022-12-09T01:30:28.442Z,60.02
2022-12-09T01:32:55.393Z,60.10
2022-12-09T01:35:22.341Z,60.05
2022-12-09T01:37:49.024Z,60.42
2022-12-09T01:40:17.655Z,60.09
2022-12-09T01:42:44.968Z,60.30
2022-12-09T01:45:20.703Z,60.47
2022-12-09T01:47:52.056Z,60.36
2022-12-09T01:50:18.924Z,60.44
2022-12-09T01:52:46.733Z,60.38
2022-12-09T01:55:13.630Z,60.54
2022-12-09T01:57:40.704Z,60.60
2022-12-09T02:00:08.297Z,60.65
2022-12-09T02:02:37.277Z,60.64
2022-12-09T02:05:05.174Z,60.56
2022-12-09T02:07:32.703Z,60.51
2022-12-09T02:09:59.463Z,60.61
2022-12-09T02:12:34.201Z,60.47
2022-12-09T02:15:07.527Z,60.52
2022-12-09T02:17:40.196Z,60.47
2022-12-09T02:20:28.372Z,60.34
2022-12-09T02:23:16.435Z,60.61
2022-12-09T02:25:48.893Z,60.59
2022-12-09T02:28:21.694Z,60.80
2022-12-09T02:31:16.661Z,60.77
2022-12-09T02:34:04.398Z,60.92
2022-12-09T02:36:40.850Z,60.77
2022-12-09T02:39:08.623Z,60.82
2022-12-09T02:41:35.761Z,61.04
2022-12-09T02:44:15.186Z,61.14
2022-12-09T02:46:42.656Z,61.18
2022-12-09T02:49:09.668Z,61.25
2022-12-09T02:51:42.199Z,61.24
2022-12-09T02:54:12.031Z,61.46
2022-12-09T02:56:41.214Z,61.51
2022-12-09T02:59:07.839Z,61.36
2022-12-09T03:01:51.098Z,61.56
2022-12-09T03:04:21.888Z,61.71
2022-12-09T03:06:52.344Z,61.63
2022-12-09T03:09:35.533Z,61.82
2022-12-09T03:12:06.438Z,61.81
2022-12-09T03:14:42.373Z,61.86
2022-12-09T03:17:14.185Z,62.03
2022-12-09T03:19:53.872Z,62.14
2022-12-09T03:22:24.820Z,62.40
2022-12-09T03:25:05.550Z,62.42
2022-12-09T03:27:38.966Z,62.52
2022-12-09T03:30:07.593Z,62.45
2022-12-09T03:32:34.995Z,62.64
2022-12-09T03:35:08.406Z,62.60
2022-12-09T03:37:37.613Z,62.41
2022-12-09T03:40:11.669Z,62.56
2022-12-09T03:42:46.200Z,62.65
2022-12-09T03:45:15.968Z,62.67
2022-12-09T03:47:42.627Z,62.63
2022-12-09T03:50:10.987Z,62.80
2022-12-09T03:52:42.620Z,62.89
2022-12-09T03:55:26.460Z,62.93
2022-12-09T03:57:55.255Z,62.86
2022-12-09T04:00:21.983Z,63.01
2022-12-09T04:02:48.844Z,62.67
2022-12-09T04:05:15.729Z,62.78
2022-12-09T04:07:43.413Z,62.73
2022-12-09T04:10:10.765Z,62.71
2022-12-09T04:12:37.574Z,62.67
2022-12-09T04:15:04.679Z,62.68
2022-12-09T04:17:31.385Z,62.68
2022-12-09T04:19:58.093Z,62.71
2022-12-09T04:22:24.783Z,62.70
2022-12-09T04:24:51.406Z,62.68
2022-12-09T04:27:18.349Z,62.77
2022-12-09T04:29:45.732Z,62.80
2022-12-09T04:32:12.727Z,62.80
2022-12-09T04:34:39.577Z,62.86
2022-12-09T04:37:06.422Z,62.66
2022-12-09T04:39:33.045Z,62.54
2022-12-09T04:41:59.874Z,62.69
2022-12-09T04:44:26.790Z,62.72
2022-12-09T04:46:53.483Z,62.73
2022-12-09T04:49:20.519Z,62.81
2022-12-09T04:51:47.158Z,63.05
2022-12-09T04:54:14.620Z,62.85
2022-12-09T04:56:41.899Z,63.00
2022-12-09T04:59:08.615Z,63.18
2022-12-09T05:01:35.581Z,63.36
2022-12-09T05:04:03.145Z,63.46
2022-12-09T05:06:30.405Z,63.51
2022-12-09T05:08:57.346Z,63.64
2022-12-09T05:11:24.423Z,63.39
2022-12-09T05:13:53.205Z,63.64
2022-12-09T05:16:20.755Z,63.65
2022-12-09T05:18:48.957Z,63.79
2022-12-09T05:21:18.638Z,63.79
2022-12-09T05:23:45.773Z,63.68
2022-12-09T05:26:15.210Z,63.74
2022-12-09T05:28:42.348Z,63.66
2022-12-09T05:31:15.593Z,63.76
2022-12-09T05:33:43.388Z,63.73
2022-12-09T05:36:11.781Z,63.66
2022-12-09T05:38:39.825Z,63.58
2022-12-09T05:41:07.266Z,63.73
2022-12-09T05:43:35.126Z,63.74
2022-12-09T05:46:02.221Z,64.09
2022-12-09T05:48:29.687Z,63.95
2022-12-09T05:51:08.666Z,63.92
2022-12-09T05:53:35.481Z,64.06
2022-12-09T05:56:02.571Z,64.17
2022-12-09T05:58:29.655Z,64.26
2022-12-09T06:00:58.045Z,64.16
2022-12-09T06:03:25.435Z,64.25
2022-12-09T06:05:52.684Z,64.44
2022-12-09T06:08:19.943Z,64.25
2022-12-09T06:10:47.369Z,64.44
2022-12-09T06:13:14.638Z,64.43
2022-12-09T06:15:41.639Z,64.38
2022-12-09T06:18:08.859Z,64.48
2022-12-09T06:20:40.494Z,64.34
2022-12-09T06:23:07.824Z,64.48
2022-12-09T06:25:35.590Z,64.50
2022-12-09T06:28:02.802Z,64.57
2022-12-09T06:30:29.748Z,64.52
2022-12-09T06:32:56.498Z,64.59
2022-12-09T06:35:23.558Z,64.54
2022-12-09T06:37:53.434Z,64.53
2022-12-09T06:40:23.528Z,64.66
2022-12-09T06:42:51.254Z,64.71
2022-12-09T06:45:19.285Z,64.93
2022-12-09T06:47:46.662Z,64.85
2022-12-09T06:50:13.985Z,64.92
2022-12-09T06:52:40.813Z,64.91
2022-12-09T06:55:08.956Z,64.89
2022-12-09T06:57:35.851Z,64.98
2022-12-09T07:00:04.896Z,65.06
2022-12-09T07:02:36.114Z,64.96
2022-12-09T07:05:04.227Z,65.02
2022-12-09T07:07:31.680Z,64.92
2022-12-09T07:09:58.799Z,64.91
2022-12-09T07:12:26.053Z,65.03
2022-12-09T07:14:52.788Z,65.19
2022-12-09T07:17:21.023Z,64.99
2022-12-09T07:19:48.261Z,64.99
2022-12-09T07:22:15.372Z,65.08
2022-12-09T07:24:44.575Z,65.10
2022-12-09T07:27:19.200Z,65.03
2022-12-09T07:29:47.053Z,65.11
2022-12-09T07:32:14.109Z,64.85
2022-12-09T07:45:14.616Z,64.65
2022-12-09T07:47:41.634Z,64.71
2022-12-09T07:50:08.567Z,64.87
2022-12-09T07:52:35.636Z,65.16
2022-12-09T07:55:02.517Z,65.24
2022-12-09T07:57:29.250Z,65.51
2022-12-09T07:59:56.889Z,65.72
2022-12-09T08:02:23.605Z,65.52
2022-12-09T08:04:50.716Z,65.33
2022-12-09T08:07:17.756Z,65.14
2022-12-09T08:09:45.016Z,65.22
2022-12-09T08:12:12.776Z,65.24
2022-12-09T08:14:39.748Z,65.25
2022-12-09T08:17:06.545Z,65.29
2022-12-09T08:19:33.765Z,65.29
2022-12-09T08:22:00.523Z,65.33
2022-12-09T08:24:27.413Z,65.47
2022-12-09T08:26:54.271Z,65.39
2022-12-09T08:29:21.445Z,65.49
2022-12-09T08:31:48.254Z,65.58
2022-12-09T08:34:15.639Z,65.48
2022-12-09T08:36:43.345Z,65.45
2022-12-09T08:39:11.672Z,65.47
2022-12-09T08:41:39.911Z,65.34
2022-12-09T08:44:13.137Z,65.52
2022-12-09T08:46:41.821Z,65.58
2022-12-09T08:49:09.202Z,65.53
2022-12-09T08:51:36.052Z,65.61
2022-12-09T08:54:03.781Z,65.59
2022-12-09T08:56:30.781Z,65.61
2022-12-09T08:58:58.053Z,65.55
2022-12-09T09:01:32.271Z,65.50
2022-12-09T09:04:10.554Z,65.56
2022-12-09T09:06:39.461Z,65.44
2022-12-09T09:09:08.206Z,65.45
2022-12-09T09:11:36.401Z,65.53
2022-12-09T09:14:05.688Z,65.53
2022-12-09T09:16:32.996Z,65.51
2022-12-09T09:19:00.329Z,65.71
2022-12-09T09:21:27.709Z,65.60
2022-12-09T09:23:54.872Z,65.71
2022-12-09T09:26:23.998Z,65.65
2022-12-09T09:28:51.130Z,65.64
2022-12-09T09:31:20.285Z,65.93
2022-12-09T09:33:47.927Z,65.79
2022-12-09T09:36:20.760Z,66.12
2022-12-09T09:38:52.263Z,66.12
2022-12-09T09:41:37.875Z,65.75
2022-12-09T09:44:29.757Z,65.86
2022-12-09T09:46:57.559Z,65.52
2022-12-09T09:49:45.631Z,65.55
2022-12-09T09:52:19.077Z,65.48
2022-12-09T09:54:45.917Z,65.42
2022-12-09T09:57:31.369Z,65.32
2022-12-09T10:00:37.025Z,65.16
2022-12-09T10:03:15.135Z,65.20
2022-12-09T10:06:28.902Z,65.02
2022-12-09T10:09:01.434Z,65.03
2022-12-09T10:11:54.843Z,65.18
2022-12-09T10:14:31.361Z,65.20
2022-12-09T10:17:10.582Z,65.26
2022-12-09T10:19:43.635Z,65.06
2022-12-09T10:22:17.131Z,65.12
2022-12-09T10:25:25.023Z,64.97
2022-12-09T10:28:18.156Z,65.16
2022-12-09T10:30:45.421Z,65.28
2022-12-09T10:33:13.883Z,65.11
2022-12-09T10:35:41.517Z,65.20
2022-12-09T10:38:17.584Z,65.03
2022-12-09T10:40:48.142Z,64.87
2022-12-09T10:43:38.886Z,64.56
2022-12-09T10:46:18.565Z,64.63
2022-12-09T10:48:49.746Z,64.66
2022-12-09T10:51:18.618Z,64.52
2022-12-09T10:53:51.622Z,64.43
2022-12-09T10:56:38.609Z,64.35
2022-12-09T10:59:19.699Z,64.36
2022-12-09T11:01:50.664Z,64.05
2022-12-09T11:04:26.434Z,64.10
2022-12-09T11:06:59.821Z,64.04
2022-12-09T11:09:31.036Z,64.16
2022-12-09T11:11:58.447Z,63.95
2022-12-09T11:14:49.145Z,64.19
2022-12-09T11:17:24.476Z,64.17
2022-12-09T11:19:54.262Z,64.16
2022-12-09T11:22:36.428Z,64.33
2022-12-09T11:25:12.808Z,64.36
2022-12-09T11:27:41.370Z,64.28
2022-12-09T11:30:15.279Z,64.60
2022-12-09T11:33:15.379Z,64.49
2022-12-09T11:35:45.179Z,64.67
2022-12-09T11:38:30.691Z,64.77
2022-12-09T11:41:42.820Z,64.72
2022-12-09T11:44:29.821Z,64.74
2022-12-09T11:47:03.386Z,64.72
2022-12-09T11:49:33.244Z,64.81
2022-12-09T11:52:27.937Z,64.79
2022-12-09T11:55:23.450Z,64.91
2022-12-09T11:58:04.088Z,64.93
2022-12-09T12:01:04.549Z,64.77
2022-12-09T12:03:34.242Z,64.75
2022-12-09T12:06:02.968Z,64.82
2022-12-09T12:09:28.441Z,64.62
2022-12-09T12:12:35.545Z,64.78
2022-12-09T12:15:29.739Z,64.40
2022-12-09T12:17:56.885Z,64.46
2022-12-09T12:20:53.819Z,64.20
2022-12-09T12:23:47.372Z,64.19
2022-12-09T12:26:21.105Z,64.18
2022-12-09T12:29:06.948Z,63.90
2022-12-09T12:31:49.480Z,63.91
2022-12-09T12:34:24.948Z,63.73
2022-12-09T12:37:03.898Z,63.62
2022-12-09T12:39:53.321Z,63.40
2022-12-09T12:43:04.696Z,63.56
2022-12-09T12:45:57.844Z,63.34
2022-12-09T12:48:50.431Z,63.25
2022-12-09T12:51:20.949Z,63.27
2022-12-09T12:54:09.174Z,62.98
2022-12-09T12:56:45.268Z,63.10
2022-12-09T12:59:21.968Z,62.79
2022-12-09T13:01:56.412Z,62.74
2022-12-09T13:04:35.162Z,62.65
2022-12-09T13:07:28.146Z,62.71
2022-12-09T13:10:42.883Z,62.46
2022-12-09T13:13:18.972Z,62.40
2022-12-09T13:15:51.836Z,62.49
2022-12-09T13:18:26.413Z,62.43
2022-12-09T13:20:58.014Z,62.43
2022-12-09T13:23:55.497Z,62.52
2022-12-09T13:26:31.118Z,62.49
2022-12-09T13:29:30.207Z,62.34
2022-12-09T13:32:22.417Z,62.22
2022-12-09T13:34:52.583Z,62.00
2022-12-09T13:37:37.376Z,61.83
2022-12-09T13:40:37.175Z,61.72
2022-12-09T13:43:04.691Z,61.46
2022-12-09T13:45:48.404Z,61.72
2022-12-09T13:48:17.332Z,61.63
2022-12-09T13:50:57.382Z,61.30
2022-12-09T13:53:40.028Z,61.46
2022-12-09T13:56:20.143Z,61.41
2022-12-09T13:59:24.941Z,61.39
2022-12-09T14:01:59.772Z,61.37
2022-12-09T14:04:32.146Z,61.31
2022-12-09T14:07:13.994Z,61.17
2022-12-09T14:09:50.094Z,61.21
2022-12-09T14:12:44.105Z,61.19
2022-12-09T14:15:23.239Z,61.15
2022-12-09T14:17:49.702Z,61.13
2022-12-09T14:20:26.550Z,60.93
2022-12-09T14:23:07.207Z,61.10
2022-12-09T14:25:33.828Z,60.95
2022-12-09T14:28:09.630Z,60.98
2022-12-09T14:30:48.382Z,61.00
2022-12-09T14:33:33.361Z,61.02
2022-12-09T14:36:05.263Z,61.00
2022-12-09T14:39:24.935Z,60.91
2022-12-09T14:42:05.832Z,61.03
2022-12-09T14:44:53.264Z,60.89
2022-12-09T14:47:23.697Z,60.95
2022-12-09T14:49:50.984Z,60.81
2022-12-09T14:52:27.796Z,60.72
2022-12-09T14:54:56.340Z,60.73
2022-12-09T14:57:26.856Z,60.68
2022-12-09T14:59:56.292Z,60.79
2022-12-09T15:02:31.755Z,60.68
2022-12-09T15:05:01.121Z,60.64
2022-12-09T15:07:32.279Z,60.44
2022-12-09T15:10:08.727Z,60.61
2022-12-09T15:12:37.980Z,60.56
2022-12-09T15:15:07.707Z,60.48
2022-12-09T15:17:43.270Z,60.63
2022-12-09T15:20:21.267Z,60.29
2022-12-09T15:22:58.227Z,60.70
2022-12-09T15:25:25.900Z,60.45
2022-12-09T15:28:00.539Z,60.51
2022-12-09T15:30:35.769Z,60.48
2022-12-09T15:33:03.569Z,60.33
2022-12-09T15:35:33.569Z,60.42
2022-12-09T15:38:05.902Z,60.43
2022-12-09T15:40:34.810Z,60.40
2022-12-09T15:43:04.154Z,60.51
2022-12-09T15:45:34.120Z,60.36
2022-12-09T15:48:18.797Z,60.51
2022-12-09T15:50:56.743Z,60.30
2022-12-09T15:54:00.526Z,60.39
2022-12-09T15:56:45.658Z,60.42
2022-12-09T15:59:18.036Z,60.37
2022-12-09T16:01:55.193Z,60.40
2022-12-09T16:04:25.501Z,60.23
2022-12-09T16:06:52.078Z,60.13
2022-12-09T16:09:20.408Z,60.23
2022-12-09T16:11:54.498Z,60.18
2022-12-09T16:14:23.722Z,60.27
2022-12-09T16:17:01.739Z,60.25
2022-12-09T16:19:31.360Z,60.19
2022-12-09T16:22:08.948Z,60.24
2022-12-09T16:25:13.074Z,60.30
2022-12-09T16:27:31.050Z,60.20
2022-12-09T16:30:02.543Z,60.47
2022-12-09T16:32:34.052Z,60.50
2022-12-09T16:35:19.522Z,60.41
2022-12-09T16:37:58.170Z,60.68
2022-12-09T16:40:24.674Z,60.47
2022-12-09T16:42:56.560Z,60.71
2022-12-09T16:45:37.480Z,60.68
2022-12-09T16:48:07.383Z,60.68
2022-12-09T16:50:37.319Z,60.64
2022-12-09T16:53:06.467Z,60.67
2022-12-09T16:55:33.110Z,60.71
2022-12-09T16:58:00.184Z,60.79
2022-12-09T17:00:27.135Z,60.93
2022-12-09T17:02:58.851Z,61.14
2022-12-09T17:05:25.439Z,61.25
2022-12-09T17:07:52.020Z,61.42
2022-12-09T17:10:18.607Z,61.21
2022-12-09T17:12:45.706Z,61.40
2022-12-09T17:15:17.354Z,61.25
2022-12-09T17:17:48.702Z,61.59
2022-12-09T17:20:16.428Z,61.56
2022-12-09T17:22:43.284Z,61.66
2022-12-09T17:25:10.452Z,61.83
2022-12-09T17:27:37.421Z,61.79
2022-12-09T17:30:05.084Z,61.95
2022-12-09T17:32:31.566Z,62.12
2022-12-09T17:34:58.171Z,62.36
2022-12-09T17:37:24.816Z,62.54
2022-12-09T17:39:56.908Z,62.38
2022-12-09T17:42:28.531Z,62.49
2022-12-09T17:44:55.148Z,62.74
2022-12-09T17:47:21.746Z,63.04
2022-12-09T17:49:48.267Z,63.12
2022-12-09T17:52:14.868Z,63.17
2022-12-09T17:54:41.397Z,63.56
2022-12-09T17:57:07.947Z,63.53
2022-12-09T17:59:34.534Z,63.81
2022-12-09T18:02:03.572Z,63.83
2022-12-09T18:04:30.870Z,63.94
2022-12-09T18:06:57.382Z,64.07
2022-12-09T18:09:24.121Z,63.93
2022-12-09T18:11:51.875Z,64.26
2022-12-09T18:14:18.830Z,64.13
2022-12-09T18:16:49.182Z,64.04
2022-12-09T18:19:17.397Z,64.02
2022-12-09T18:21:44.564Z,64.08
2022-12-09T18:24:11.094Z,63.87
2022-12-09T18:26:41.683Z,64.11
2022-12-09T18:29:08.905Z,64.11
2022-12-09T18:31:35.707Z,64.32
2022-12-09T18:34:02.284Z,64.38
2022-12-09T18:36:29.279Z,64.14
2022-12-09T18:38:58.075Z,64.51
2022-12-09T18:41:29.328Z,64.44
2022-12-09T18:43:59.633Z,64.30
2022-12-09T18:46:32.174Z,64.32
2022-12-09T18:49:07.294Z,64.30
2022-12-09T18:51:34.701Z,64.43
2022-12-09T18:54:02.319Z,64.59
2022-12-09T18:56:29.780Z,64.67
2022-12-09T18:59:06.638Z,64.74
2022-12-09T19:01:35.809Z,64.79
2022-12-09T19:04:05.339Z,65.12
2022-12-09T19:06:37.257Z,65.04
2022-12-09T19:09:06.728Z,65.40
2022-12-09T19:11:36.225Z,65.25
2022-12-09T19:14:04.722Z,65.29
2022-12-09T19:16:31.502Z,65.51
2022-12-09T19:19:01.337Z,65.49
2022-12-09T19:21:30.655Z,65.48
2022-12-09T19:23:57.448Z,65.43
2022-12-09T19:26:26.609Z,65.37
2022-12-09T19:28:58.160Z,65.41
2022-12-09T19:31:28.289Z,65.56
2022-12-09T19:33:59.743Z,65.37
2022-12-09T19:36:28.051Z,65.45
2022-12-09T19:38:56.680Z,65.50
2022-12-09T19:41:23.293Z,65.49
2022-12-09T19:43:54.932Z,65.63
2022-12-09T19:46:21.782Z,65.72
2022-12-09T19:48:48.443Z,65.99
2022-12-09T19:51:16.765Z,66.16
2022-12-09T19:53:43.998Z,66.20
2022-12-09T19:56:16.667Z,66.43
2022-12-09T19:58:44.172Z,66.25
2022-12-09T20:01:11.756Z,66.28
2022-12-09T20:03:42.501Z,66.25
2022-12-09T20:06:10.858Z,66.10
2022-12-09T20:08:38.169Z,66.03
2022-12-09T20:11:16.926Z,66.21
2022-12-09T20:13:43.854Z,66.17
2022-12-09T20:16:14.468Z,66.31
2022-12-09T20:18:42.027Z,66.38
2022-12-09T20:21:10.710Z,66.46
2022-12-09T20:23:38.872Z,66.42
2022-12-09T20:26:13.571Z,66.66
2022-12-09T20:28:41.375Z,66.61
2022-12-09T20:31:13.803Z,66.73
2022-12-09T20:33:40.796Z,66.70
2022-12-09T20:36:19.604Z,66.72
2022-12-09T20:38:58.281Z,66.76
2022-12-09T20:41:25.707Z,66.97
2022-12-09T20:43:56.061Z,66.97
2022-12-09T20:46:24.887Z,67.02
2022-12-09T20:48:51.511Z,66.92
2022-12-09T20:51:24.351Z,67.23
2022-12-09T20:53:51.335Z,67.32
2022-12-09T20:56:19.782Z,67.45
2022-12-09T20:58:47.500Z,67.33
2022-12-09T21:01:19.584Z,67.59
2022-12-09T21:03:47.951Z,67.45
2022-12-09T21:06:15.426Z,67.51
2022-12-09T21:08:42.689Z,67.60
2022-12-09T21:11:20.435Z,67.65
2022-12-09T21:13:51.949Z,67.58
2022-12-09T21:16:21.171Z,67.72
2022-12-09T21:18:49.433Z,67.66
2022-12-09T21:21:16.772Z,67.72
2022-12-09T21:23:44.182Z,67.65
2022-12-09T22:32:37.933Z,67.55
2022-12-09T22:35:08.164Z,67.66
2022-12-09T22:37:43.605Z,67.68
2022-12-09T22:40:11.360Z,67.77
2022-12-09T22:42:38.131Z,67.66
2022-12-09T22:45:06.439Z,67.79
2022-12-09T22:47:32.936Z,67.81
2022-12-09T22:49:59.486Z,67.93
2022-12-09T22:52:26.015Z,67.95
2022-12-09T22:54:52.556Z,67.93
2022-12-09T22:57:19.170Z,67.92
2022-12-09T22:59:45.776Z,67.78
2022-12-09T23:02:12.436Z,67.92
2022-12-09T23:04:39.008Z,68.09
2022-12-09T23:07:05.546Z,67.86
2022-12-09T23:09:32.103Z,68.18
2022-12-09T23:11:58.616Z,67.90
2022-12-09T23:14:28.281Z,68.06
2022-12-09T23:16:54.969Z,68.25
2022-12-09T23:19:21.527Z,68.16
2022-12-09T23:21:48.049Z,68.14
2022-12-09T23:24:22.680Z,68.22
2022-12-09T23:26:50.883Z,68.08
2022-12-09T23:29:17.383Z,67.90
2022-12-09T23:31:44.632Z,68.20
2022-12-09T23:34:12.964Z,68.07
2022-12-09T23:36:41.929Z,68.17
2022-12-09T23:39:11.181Z,68.06
2022-12-09T23:41:39.248Z,68.00
2022-12-09T23:44:14.706Z,68.15
2022-12-09T23:46:41.832Z,68.14
2022-12-09T23:49:08.685Z,68.17
2022-12-09T23:51:38.298Z,68.15
2022-12-09T23:54:07.421Z,68.23
2022-12-09T23:56:38.585Z,68.04
2022-12-09T23:59:09.127Z,68.09
